createdAt,value
2022-10-03T00:02:34.843Z,62.57
2022-10-03T00:05:30.156Z,62.02
2022-10-03T00:08:42.478Z,62.08
2022-10-03T00:11:36.895Z,61.97
2022-10-03T00:14:27.219Z,61.90
2022-10-03T00:17:18.309Z,61.36
2022-10-03T00:20:23.650Z,61.22
2022-10-03T00:23:22.432Z,61.26
2022-10-03T00:26:22.789Z,61.62
2022-10-03T00:29:39.490Z,61.63
2022-10-03T00:32:18.578Z,61.78
2022-10-03T00:35:14.964Z,61.75
2022-10-03T00:38:22.629Z,61.55
2022-10-03T00:41:16.371Z,61.94
2022-10-03T00:44:22.662Z,61.69
2022-10-03T00:47:14.157Z,61.85
2022-10-03T00:50:01.928Z,61.85
2022-10-03T00:52:44.017Z,62.00
2022-10-03T00:55:43.970Z,61.95
2022-10-03T00:58:51.649Z,61.80
2022-10-03T01:01:44.698Z,61.95
2022-10-03T01:04:42.096Z,61.97
2022-10-03T01:08:02.738Z,61.85
2022-10-03T01:10:52.918Z,61.79
2022-10-03T01:13:26.261Z,61.83
2022-10-03T01:16:25.481Z,61.67
2022-10-03T01:19:21.731Z,61.57
2022-10-03T01:22:50.591Z,61.49
2022-10-03T01:25:51.991Z,61.49
2022-10-03T01:28:49.439Z,61.42
2022-10-03T01:31:25.710Z,61.37
2022-10-03T01:34:12.136Z,61.37
2022-10-03T01:36:58.021Z,61.72
2022-10-03T01:39:37.449Z,61.45
2022-10-03T01:42:20.791Z,61.30
2022-10-03T01:45:56.283Z,61.28
2022-10-03T01:49:08.632Z,61.63
2022-10-03T01:52:17.264Z,61.29
2022-10-03T01:55:26.148Z,61.39
2022-10-03T01:58:14.491Z,61.20
2022-10-03T02:01:04.898Z,61.64
2022-10-03T02:03:51.831Z,61.40
2022-10-03T02:06:56.283Z,61.01
2022-10-03T02:09:46.790Z,61.40
2022-10-03T02:12:23.192Z,61.24
2022-10-03T02:15:29.174Z,61.38
2022-10-03T02:18:36.779Z,61.09
2022-10-03T02:21:23.065Z,61.49
2022-10-03T02:24:08.417Z,61.11
2022-10-03T02:27:07.789Z,60.89
2022-10-03T02:30:15.038Z,60.79
2022-10-03T02:33:15.509Z,61.05
2022-10-03T02:36:10.550Z,60.97
2022-10-03T02:38:53.278Z,61.22
2022-10-03T02:41:42.635Z,61.16
2022-10-03T02:44:50.930Z,60.99
2022-10-03T02:48:27.424Z,60.79
2022-10-03T02:51:43.355Z,60.54
2022-10-03T02:54:59.517Z,60.24
2022-10-03T02:57:54.929Z,60.52
2022-10-03T03:00:46.993Z,60.63
2022-10-03T03:03:39.165Z,60.24
2022-10-03T03:06:31.052Z,60.08
2022-10-03T03:09:57.290Z,60.36
2022-10-03T03:13:29.149Z,59.79
2022-10-03T03:16:26.577Z,59.72
2022-10-03T03:19:35.135Z,60.04
2022-10-03T03:22:43.733Z,59.79
2022-10-03T03:25:48.684Z,59.83
2022-10-03T03:28:45.403Z,59.55
2022-10-03T03:31:13.848Z,59.50
2022-10-03T03:34:20.272Z,59.19
2022-10-03T03:37:02.020Z,58.94
2022-10-03T03:39:42.497Z,59.27
2022-10-03T03:42:46.441Z,59.00
2022-10-03T03:45:44.654Z,59.08
2022-10-03T03:48:35.578Z,59.24
2022-10-03T03:51:34.598Z,59.26
2022-10-03T03:55:02.067Z,59.15
2022-10-03T03:57:49.112Z,58.96
2022-10-03T04:01:01.636Z,59.07
2022-10-03T04:03:45.436Z,59.50
2022-10-03T04:06:44.273Z,59.21
2022-10-03T04:09:44.380Z,59.06
2022-10-03T04:12:50.300Z,58.98
2022-10-03T04:15:43.905Z,58.83
2022-10-03T04:18:17.158Z,59.05
2022-10-03T04:21:16.870Z,58.65
2022-10-03T04:23:55.281Z,58.65
2022-10-03T04:26:46.593Z,58.33
2022-10-03T04:29:58.544Z,58.50
2022-10-03T04:33:04.826Z,58.07
2022-10-03T04:35:41.101Z,58.11
2022-10-03T04:38:38.773Z,58.01
2022-10-03T04:41:32.377Z,58.24
2022-10-03T04:44:38.280Z,58.30
2022-10-03T04:47:47.880Z,58.35
2022-10-03T04:50:43.741Z,58.14
2022-10-03T04:54:00.037Z,58.25
2022-10-03T04:56:49.799Z,58.35
2022-10-03T05:00:00.117Z,58.32
2022-10-03T05:03:04.672Z,58.33
2022-10-03T05:06:10.203Z,58.39
2022-10-03T05:08:54.032Z,58.34
2022-10-03T05:11:56.039Z,58.51
2022-10-03T05:14:50.996Z,58.32
2022-10-03T05:17:38.969Z,58.72
2022-10-03T05:20:30.891Z,58.24
2022-10-03T05:23:51.621Z,58.54
2022-10-03T05:26:46.797Z,58.31
2022-10-03T05:29:24.833Z,58.59
2022-10-03T05:32:36.391Z,58.40
2022-10-03T05:35:40.778Z,58.45
2022-10-03T05:38:15.974Z,58.54
2022-10-03T05:41:09.015Z,58.71
2022-10-03T05:43:51.203Z,58.73
2022-10-03T05:47:08.477Z,58.90
2022-10-03T05:50:10.976Z,58.51
2022-10-03T05:53:24.730Z,58.42
2022-10-03T05:56:09.275Z,58.50
2022-10-03T05:59:03.767Z,58.56
2022-10-03T06:02:04.088Z,58.86
2022-10-03T06:05:08.042Z,58.95
2022-10-03T06:08:21.624Z,58.64
2022-10-03T06:11:34.353Z,58.66
2022-10-03T06:14:31.196Z,58.70
2022-10-03T06:17:43.825Z,59.04
2022-10-03T06:20:32.215Z,58.80
2022-10-03T06:23:47.095Z,58.60
2022-10-03T06:26:46.143Z,58.85
2022-10-03T06:30:03.401Z,59.10
2022-10-03T06:33:04.213Z,59.34
2022-10-03T06:36:15.244Z,59.31
2022-10-03T06:39:25.051Z,59.66
2022-10-03T06:42:28.912Z,59.80
2022-10-03T06:45:33.288Z,59.27
2022-10-03T06:48:24.372Z,59.50
2022-10-03T06:51:01.874Z,59.37
2022-10-03T06:54:19.573Z,59.37
2022-10-03T06:57:22.920Z,59.10
2022-10-03T07:00:19.710Z,59.17
2022-10-03T07:03:46.072Z,58.80
2022-10-03T07:06:52.178Z,58.81
2022-10-03T07:09:40.335Z,58.78
2022-10-03T07:12:50.653Z,58.35
2022-10-03T07:16:08.846Z,58.35
2022-10-03T07:19:03.144Z,58.20
2022-10-03T07:21:50.904Z,58.21
2022-10-03T07:24:55.474Z,58.20
2022-10-03T07:28:02.007Z,58.01
2022-10-03T07:30:59.020Z,57.68
2022-10-03T07:34:15.444Z,57.79
2022-10-03T07:36:54.732Z,57.57
2022-10-03T07:39:47.458Z,56.94
2022-10-03T07:42:55.021Z,56.37
2022-10-03T07:45:28.871Z,55.79
2022-10-03T07:48:29.427Z,53.59
2022-10-03T07:51:13.889Z,51.55
2022-10-03T07:54:27.102Z,49.40
2022-10-03T07:57:00.340Z,48.42
2022-10-03T07:59:36.210Z,47.83
2022-10-03T08:02:29.297Z,46.92
2022-10-03T08:05:29.015Z,46.70
2022-10-03T08:08:48.095Z,46.01
2022-10-03T08:11:33.150Z,44.88
2022-10-03T08:14:48.975Z,44.61
2022-10-03T08:18:07.900Z,44.49
2022-10-03T08:20:52.687Z,44.01
2022-10-03T08:23:52.593Z,40.68
2022-10-03T08:26:42.530Z,41.00
2022-10-03T08:29:42.972Z,42.12
2022-10-03T08:32:55.969Z,41.41
2022-10-03T08:35:35.094Z,38.99
2022-10-03T08:38:40.401Z,37.76
2022-10-03T08:41:47.903Z,38.37
2022-10-03T08:44:45.916Z,38.43
2022-10-03T08:47:40.062Z,37.20
2022-10-03T08:51:13.766Z,36.89
2022-10-03T08:54:15.931Z,36.30
2022-10-03T08:57:07.328Z,37.16
2022-10-03T09:00:10.862Z,37.00
2022-10-03T09:03:28.222Z,36.77
2022-10-03T09:06:20.985Z,36.95
2022-10-03T09:09:31.080Z,36.51
2022-10-03T09:12:32.148Z,34.87
2022-10-03T09:15:23.757Z,35.59
2022-10-03T09:18:02.986Z,34.86
2022-10-03T09:21:25.934Z,33.96
2022-10-03T09:24:18.083Z,33.91
2022-10-03T09:27:33.322Z,33.07
2022-10-03T09:30:20.940Z,33.97
2022-10-03T09:33:44.123Z,32.48
2022-10-03T09:37:00.836Z,32.59
2022-10-03T09:40:01.645Z,32.04
2022-10-03T09:43:12.101Z,31.23
2022-10-03T09:46:21.736Z,30.61
2022-10-03T09:49:09.934Z,30.37
2022-10-03T09:52:16.535Z,29.96
2022-10-03T09:55:03.872Z,29.56
2022-10-03T09:57:52.125Z,29.77
2022-10-03T10:00:53.863Z,29.58
2022-10-03T10:04:28.280Z,30.44
2022-10-03T10:07:28.629Z,29.63
2022-10-03T10:10:32.874Z,30.08
2022-10-03T10:13:49.752Z,30.36
2022-10-03T10:17:20.645Z,30.07
2022-10-03T10:20:23.686Z,30.38
2022-10-03T10:23:25.845Z,29.58
2022-10-03T10:26:09.774Z,28.19
2022-10-03T10:28:55.642Z,28.73
2022-10-03T10:32:02.861Z,27.72
2022-10-03T10:34:45.315Z,27.58
2022-10-03T10:37:49.853Z,28.58
2022-10-03T10:41:23.029Z,28.52
2022-10-03T10:44:42.377Z,27.56
2022-10-03T10:47:49.851Z,26.63
2022-10-03T10:50:26.510Z,24.62
2022-10-03T10:53:30.857Z,21.60
2022-10-03T10:56:33.696Z,20.07
2022-10-03T10:59:57.304Z,18.02
2022-10-03T11:03:23.413Z,17.36
2022-10-03T11:05:53.703Z,16.67
2022-10-03T11:09:11.181Z,15.80
2022-10-03T11:11:50.765Z,15.27
2022-10-03T11:14:30.556Z,15.05
2022-10-03T11:17:49.520Z,13.71
2022-10-03T11:20:38.383Z,14.45
2022-10-03T11:23:36.157Z,13.88
2022-10-03T11:26:27.853Z,14.07
2022-10-03T11:29:13.794Z,13.49
2022-10-03T11:31:56.153Z,13.33
2022-10-03T11:34:57.443Z,13.92
2022-10-03T11:37:37.342Z,13.44
2022-10-03T11:40:30.755Z,12.97
2022-10-03T11:43:35.005Z,12.98
2022-10-03T11:46:14.186Z,12.87
2022-10-03T11:48:56.224Z,13.00
2022-10-03T11:52:13.630Z,12.79
2022-10-03T11:54:47.112Z,13.01
2022-10-03T11:57:35.623Z,13.33
2022-10-03T12:00:20.937Z,12.52
2022-10-03T12:03:11.863Z,13.43
2022-10-03T12:06:13.844Z,14.31
2022-10-03T12:09:02.660Z,14.24
2022-10-03T12:11:42.803Z,13.75
2022-10-03T12:14:11.764Z,14.53
2022-10-03T12:17:18.056Z,13.95
2022-10-03T12:20:20.805Z,14.96
2022-10-03T12:22:55.873Z,14.93
2022-10-03T12:25:35.310Z,15.10
2022-10-03T12:28:24.314Z,14.90
2022-10-03T12:31:10.520Z,16.07
2022-10-03T12:34:05.154Z,15.55
2022-10-03T12:37:09.271Z,14.92
2022-10-03T12:40:23.669Z,16.51
2022-10-03T12:43:30.276Z,15.48
2022-10-03T12:46:28.117Z,16.34
2022-10-03T12:49:26.690Z,16.48
2022-10-03T12:52:09.089Z,15.19
2022-10-03T12:54:57.284Z,16.35
2022-10-03T12:58:02.264Z,16.09
2022-10-03T13:00:50.113Z,17.83
2022-10-03T13:03:42.123Z,15.62
2022-10-03T13:06:38.861Z,15.57
2022-10-03T13:09:51.420Z,16.23
2022-10-03T13:12:40.037Z,16.25
2022-10-03T13:16:21.534Z,15.43
2022-10-03T13:19:03.114Z,15.01
2022-10-03T13:22:03.498Z,13.66
2022-10-03T13:24:48.555Z,14.46
2022-10-03T13:27:35.257Z,15.83
2022-10-03T13:30:29.890Z,16.11
2022-10-03T13:33:23.724Z,16.19
2022-10-03T13:36:33.308Z,16.73
2022-10-03T13:39:15.961Z,17.50
2022-10-03T13:42:03.897Z,17.22
2022-10-03T13:45:13.764Z,15.69
2022-10-03T13:47:50.324Z,16.44
2022-10-03T13:50:33.361Z,16.31
2022-10-03T13:53:12.431Z,16.70
2022-10-03T13:55:55.100Z,17.72
2022-10-03T13:58:42.755Z,17.39
2022-10-03T14:01:52.394Z,16.71
2022-10-03T14:04:47.060Z,17.67
2022-10-03T14:08:05.325Z,17.54
2022-10-03T14:11:06.763Z,16.92
2022-10-03T14:14:05.824Z,15.72
2022-10-03T14:16:42.077Z,16.02
2022-10-03T14:19:52.840Z,16.10
2022-10-03T14:22:52.223Z,16.37
2022-10-03T14:25:43.797Z,15.79
2022-10-03T14:28:37.694Z,15.45
2022-10-03T14:31:16.837Z,16.21
2022-10-03T14:33:53.299Z,15.63
2022-10-03T14:36:48.094Z,15.89
2022-10-03T14:39:45.971Z,16.15
2022-10-03T14:42:44.102Z,15.96
2022-10-03T14:45:22.326Z,16.22
2022-10-03T14:48:12.623Z,16.04
2022-10-03T14:50:42.243Z,16.84
2022-10-03T14:53:23.385Z,18.16
2022-10-03T14:56:12.186Z,17.67
2022-10-03T14:58:49.156Z,17.28
2022-10-03T15:01:21.082Z,17.52
2022-10-03T15:04:24.530Z,17.73
2022-10-03T15:06:54.716Z,18.53
2022-10-03T15:09:34.597Z,19.08
2022-10-03T15:12:07.606Z,19.69
2022-10-03T15:14:43.015Z,20.25
2022-10-03T15:17:28.647Z,20.08
2022-10-03T15:19:59.598Z,20.82
2022-10-03T15:22:37.804Z,21.52
2022-10-03T15:25:41.783Z,22.25
2022-10-03T15:28:21.671Z,24.17
2022-10-03T15:30:53.973Z,25.78
2022-10-03T15:33:38.013Z,26.31
2022-10-03T15:36:14.212Z,26.53
2022-10-03T15:38:49.261Z,27.43
2022-10-03T15:41:36.983Z,27.11
2022-10-03T15:44:27.402Z,26.91
2022-10-03T15:47:04.904Z,28.47
2022-10-03T15:50:07.147Z,28.88
2022-10-03T15:52:48.049Z,29.89
2022-10-03T15:55:36.436Z,30.52
2022-10-03T15:58:17.935Z,30.90
2022-10-03T16:00:59.686Z,31.38
2022-10-03T16:03:40.691Z,31.73
2022-10-03T16:06:22.928Z,31.29
2022-10-03T16:09:30.781Z,31.50
2022-10-03T16:12:49.365Z,30.97
2022-10-03T16:16:10.221Z,33.11
2022-10-03T16:19:25.314Z,32.92
2022-10-03T16:22:21.473Z,33.73
2022-10-03T16:25:16.105Z,34.46
2022-10-03T16:27:56.128Z,34.19
2022-10-03T16:30:42.408Z,33.92
2022-10-03T16:33:09.728Z,34.18
2022-10-03T16:35:40.738Z,34.99
2022-10-03T16:38:22.669Z,35.07
2022-10-03T16:41:00.406Z,35.46
2022-10-03T16:43:32.145Z,35.44
2022-10-03T16:46:38.879Z,35.99
2022-10-03T16:49:24.980Z,36.00
2022-10-03T16:52:04.290Z,35.98
2022-10-03T16:54:32.257Z,36.08
2022-10-03T16:57:05.198Z,36.24
2022-10-03T16:59:36.372Z,36.26
2022-10-03T17:02:15.489Z,36.58
2022-10-03T17:04:49.323Z,36.72
2022-10-03T17:07:25.611Z,37.01
2022-10-03T17:09:57.379Z,37.28
2022-10-03T17:12:58.890Z,37.80
2022-10-03T17:15:35.999Z,37.61
2022-10-03T17:18:29.681Z,37.60
2022-10-03T17:21:15.522Z,38.16
2022-10-03T17:24:13.258Z,38.67
2022-10-03T17:26:50.031Z,38.38
2022-10-03T17:29:33.237Z,38.18
2022-10-03T17:32:01.363Z,38.80
2022-10-03T17:34:50.293Z,38.85
2022-10-03T17:37:41.588Z,38.83
2022-10-03T17:40:23.376Z,39.44
2022-10-03T17:43:04.397Z,39.53
2022-10-03T17:45:43.348Z,39.66
2022-10-03T17:48:24.049Z,39.86
2022-10-03T17:51:23.491Z,39.96
2022-10-03T17:53:57.849Z,39.97
2022-10-03T17:56:30.070Z,40.35
2022-10-03T17:59:43.744Z,40.29
2022-10-03T18:02:24.209Z,40.34
2022-10-03T18:05:07.326Z,40.44
2022-10-03T18:07:36.762Z,40.63
2022-10-03T18:10:16.514Z,41.12
2022-10-03T18:12:44.475Z,41.38
2022-10-03T18:15:54.908Z,41.08
2022-10-03T18:18:54.064Z,41.30
2022-10-03T18:21:54.845Z,41.52
2022-10-03T18:24:36.946Z,41.40
2022-10-03T18:27:30.988Z,41.97
2022-10-03T18:30:06.512Z,41.92
2022-10-03T18:32:41.299Z,42.15
2022-10-03T18:35:34.138Z,42.11
2022-10-03T18:38:20.384Z,42.02
2022-10-03T18:41:00.177Z,42.65
2022-10-03T18:43:39.546Z,42.67
2022-10-03T18:46:16.098Z,42.49
2022-10-03T18:49:28.146Z,42.95
2022-10-03T18:52:24.080Z,43.49
2022-10-03T18:55:27.844Z,43.54
2022-10-03T18:58:23.852Z,43.47
2022-10-03T19:01:16.639Z,43.11
2022-10-03T19:04:02.296Z,43.79
2022-10-03T19:06:49.187Z,43.39
2022-10-03T19:10:08.652Z,43.45
2022-10-03T19:12:43.211Z,43.67
2022-10-03T19:15:38.573Z,43.83
2022-10-03T19:18:39.051Z,43.46
2022-10-03T19:21:18.685Z,44.04
2022-10-03T19:24:07.349Z,44.08
2022-10-03T19:26:37.991Z,43.95
2022-10-03T19:29:13.498Z,43.91
2022-10-03T19:32:03.890Z,44.05
2022-10-03T19:34:43.604Z,44.53
2022-10-03T19:37:25.728Z,44.58
2022-10-03T19:39:53.286Z,44.39
2022-10-03T19:42:44.981Z,44.98
2022-10-03T19:45:15.175Z,45.00
2022-10-03T19:47:58.800Z,44.88
2022-10-03T19:50:36.493Z,45.22
2022-10-03T19:53:18.544Z,45.08
2022-10-03T19:55:50.095Z,45.11
2022-10-03T19:58:24.323Z,45.21
2022-10-03T20:01:02.525Z,44.86
2022-10-03T20:03:40.151Z,44.83
2022-10-03T20:06:35.268Z,45.04
2022-10-03T20:09:18.835Z,45.08
2022-10-03T20:12:01.918Z,45.53
2022-10-03T20:14:40.729Z,45.30
2022-10-03T20:17:23.370Z,45.59
2022-10-03T20:19:54.421Z,45.42
2022-10-03T20:22:30.552Z,45.63
2022-10-03T20:25:00.557Z,45.69
2022-10-03T20:27:52.660Z,45.55
2022-10-03T20:30:38.965Z,45.54
2022-10-03T20:33:07.923Z,45.77
2022-10-03T20:36:05.169Z,45.93
2022-10-03T20:38:53.520Z,45.64
2022-10-03T20:41:40.696Z,45.81
2022-10-03T20:44:44.569Z,46.12
2022-10-03T20:47:43.611Z,45.84
2022-10-03T20:50:24.397Z,45.90
2022-10-03T20:53:04.450Z,45.80
2022-10-03T20:55:43.996Z,45.92
2022-10-03T20:58:47.957Z,45.83
2022-10-03T21:01:27.006Z,46.10
2022-10-03T21:04:25.782Z,46.21
2022-10-03T21:07:06.492Z,46.42
2022-10-03T21:09:44.765Z,46.29
2022-10-03T21:12:32.395Z,46.43
2022-10-03T21:15:12.135Z,46.61
2022-10-03T21:17:44.154Z,46.75
2022-10-03T21:20:21.882Z,47.19
2022-10-03T21:22:53.822Z,47.04
2022-10-03T21:25:24.170Z,47.12
2022-10-03T21:27:57.011Z,47.35
2022-10-03T21:30:49.423Z,47.10
2022-10-03T21:33:27.297Z,47.17
2022-10-03T21:35:55.115Z,47.23
2022-10-03T21:38:32.807Z,47.00
2022-10-03T21:41:11.923Z,47.16
2022-10-03T21:44:04.465Z,47.50
2022-10-03T21:46:52.638Z,47.37
2022-10-03T21:49:58.004Z,47.12
2022-10-03T21:52:58.420Z,47.60
2022-10-03T21:55:51.172Z,47.61
2022-10-03T21:58:46.545Z,47.43
2022-10-03T22:01:52.582Z,47.64
2022-10-03T22:04:47.765Z,47.65
2022-10-03T22:07:26.939Z,47.79
2022-10-03T22:09:57.865Z,48.01
2022-10-03T22:12:31.224Z,47.91
2022-10-03T22:15:16.716Z,47.84
2022-10-03T22:18:02.451Z,47.96
2022-10-03T22:20:34.429Z,47.92
2022-10-03T22:23:19.485Z,48.13
2022-10-03T22:26:29.878Z,48.42
2022-10-03T22:29:16.023Z,48.60
2022-10-03T22:32:09.977Z,48.50
2022-10-03T22:34:58.512Z,48.58
2022-10-03T22:37:27.434Z,48.37
2022-10-03T22:39:59.301Z,48.76
2022-10-03T22:42:33.920Z,48.49
2022-10-03T22:45:05.832Z,48.48
2022-10-03T22:47:35.981Z,48.76
2022-10-03T22:50:10.867Z,48.62
2022-10-03T22:52:43.748Z,48.90
2022-10-03T22:55:16.491Z,49.06
2022-10-03T22:57:45.784Z,48.96
2022-10-03T23:00:21.647Z,49.29
2022-10-03T23:02:58.192Z,49.16
2022-10-03T23:05:55.524Z,49.17
2022-10-03T23:08:48.418Z,49.24
2022-10-03T23:11:29.305Z,48.68
2022-10-03T23:14:17.842Z,48.95
2022-10-03T23:17:06.300Z,49.05
2022-10-03T23:20:10.877Z,48.99
2022-10-03T23:22:46.156Z,49.26
2022-10-03T23:25:33.204Z,49.37
2022-10-03T23:28:03.651Z,49.40
2022-10-03T23:30:45.217Z,49.05
2022-10-03T23:33:40.085Z,49.27
2022-10-03T23:36:21.976Z,49.45
2022-10-03T23:38:49.126Z,49.55
2022-10-03T23:41:59.058Z,49.38
2022-10-03T23:44:54.926Z,49.15
2022-10-03T23:47:40.624Z,49.74
2022-10-03T23:50:09.879Z,49.80
2022-10-03T23:52:50.124Z,49.94
2022-10-03T23:55:35.068Z,49.77
2022-10-03T23:58:16.017Z,49.64
